Norwood, MA (02062)

11:23 AM EDT on September 02, 2014 (GMT -0400)
KMANORWO2 | Change Station
CLOSE
Current Station
Personal Weather Station
Location: Norwood, MA
Elevation: 125 ft
Nearby Weather Stations

Elev 125 ft 42.19 °N, 71.19 °W | Updated 1 minute ago

Partly Cloudy
Partly Cloudy
87.4 °F
Feels Like 95 °F
N
5.0
Wind Variable Wind from SW
Gusts 12.0 mph

Today
High -- | Low -- °F
--% Chance of Precip.
Yesterday
High -- | Low -- °F
Precip. -- in
6:11 AM 7:16 PM
First Quarter, 52% visible
Pressure 29.90 in
Visibility 10.0 miles
Clouds Few 2900 ft
Heat Index 95 °F
Dew Point 73 °F
Humidity 63%
Rainfall 0.00 in
Snow Depth Not available.
UV 7 out of 12
Pollen 8.20 out of 12
Ozone Good
Flu Activity Not available.
METAR KOWD 021453Z 25009KT 10SM FEW029 30/22 A2990 RMK AO2 SLP124 T03000217 58004

More Conditions Fewer Conditions

Pressure 29.90 in
Visibility 10.0 miles
Clouds Few 2900 ft
Heat Index 95 °F
Dew Point 73 °F
Humidity 63%
Rainfall 0.00 in
Snow Depth Not available.
UV 7 out of 12
Pollen 8.20 out of 12
Ozone Good
Flu Activity Not available.
METAR KOWD 021453Z 25009KT 10SM FEW029 30/22 A2990 RMK AO2 SLP124 T03000217 58004

More Conditions Fewer Conditions

10-Day Weather Forecast

Almanac

Astronomy

Sep. 02, 2014 Rise Set
Actual Time 6:11 AM EDT 7:16 PM EDT
Civil Twilight 5:42 AM EDT 7:45 PM EDT
Nautical Twilight 5:08 AM EDT 8:19 PM EDT
Astronomical Twilight 4:32 AM EDT 8:55 PM EDT
Moon 2:00 PM EDT No Moon Set
Length of Visible Light 14h 03m
Length of Day
13h 05m
Tomorrow will be 2m 45s shorter.
First Quarter, 52% of the Moon is Illuminated
Today
First Quarter
Sep 8
Full
Sep 15
Last Quarter
Sep 24
New
Oct 1
First Quarter

Today's Extremes

State Highs State Lows

Community

WunderPhotos

Upload Photos

1,749,690 photos uploaded!

Nearby

Air Quality

  Air Quality AQ Index Pollutant
Yesterday Good
OZONE
Current Good
OZONE
Tuesday Moderate
OZONE
Tuesday Good
PM2.5

Snow Depth

Station Depth Elevation
No new snow has been reported.

Earthquake Activity

City Distance Mag. Time & Date
No recent earthquake activity has been reported nearby.
Minimum magnitude displayed is 2.5.

Coastal Water Temperatures

Place Temperature
Boston, MA 68.0 °F
Providence, RI 73.9 °F
Fall River, MA 75.0 °F
Conimicut Light, RI 73.9 °F

Nearby Weather Stations